createdAt,value
2023-02-11T00:00:32.804Z,53.81
2023-02-11T00:01:32.836Z,58.71
2023-02-11T00:02:33.008Z,68.26
2023-02-11T00:03:32.935Z,77.46
2023-02-11T00:04:33.172Z,81.22
2023-02-11T00:05:32.765Z,89.06
2023-02-11T00:06:32.761Z,92.43
2023-02-11T00:07:32.802Z,90.75
2023-02-11T00:09:54.677Z,25.00
2023-02-11T00:12:27.339Z,25.00
2023-02-11T00:14:48.644Z,25.00
2023-02-11T00:37:42.488Z,25.00
2023-02-11T00:38:42.343Z,25.00
2023-02-11T01:07:55.657Z,25.00
2023-02-11T01:08:55.663Z,25.00
2023-02-11T01:09:55.742Z,25.00
2023-02-11T01:10:55.546Z,25.00
2023-02-11T01:11:54.517Z,25.00
2023-02-11T01:12:54.754Z,25.00
2023-02-11T01:13:54.755Z,14.43
2023-02-11T01:14:55.787Z,18.43
2023-02-11T01:15:55.258Z,23.91
2023-02-11T01:16:54.735Z,31.47
2023-02-11T01:17:54.715Z,35.97
2023-02-11T01:18:54.602Z,44.07
2023-02-11T01:21:15.196Z,25.00
2023-02-11T01:31:02.757Z,25.00
2023-02-11T01:32:02.081Z,25.00
2023-02-11T01:33:02.002Z,25.00
2023-02-11T01:34:02.111Z,25.00
2023-02-11T01:35:02.764Z,25.00
2023-02-11T01:36:02.095Z,25.00
2023-02-11T01:37:01.906Z,26.30
2023-02-11T01:38:01.933Z,24.93
2023-02-11T01:39:01.928Z,25.48
2023-02-11T01:40:01.950Z,25.97
2023-02-11T01:41:01.950Z,26.77
2023-02-11T01:42:01.948Z,37.23
2023-02-11T01:44:01.850Z,25.00
2023-02-11T01:52:33.398Z,25.00
2023-02-11T01:53:33.221Z,25.00
2023-02-11T01:54:32.860Z,25.00
2023-02-11T01:55:32.149Z,25.00
2023-02-11T01:57:52.664Z,25.00
2023-02-11T01:58:52.299Z,25.00
2023-02-11T01:59:52.567Z,25.00
2023-02-11T02:00:52.142Z,25.00
2023-02-11T02:01:52.256Z,25.00
2023-02-11T02:02:52.116Z,25.87
2023-02-11T02:03:52.222Z,25.72
2023-02-11T02:04:52.113Z,25.00
2023-02-11T02:05:52.523Z,29.41
2023-02-11T02:06:52.145Z,26.42
2023-02-11T02:07:52.082Z,34.49
2023-02-11T02:08:52.103Z,26.73
2023-02-11T04:02:36.237Z,25.00
2023-02-11T04:07:30.533Z,25.00
2023-02-11T04:11:22.354Z,25.00
2023-02-11T04:12:37.678Z,25.00
2023-02-11T04:18:43.706Z,25.00
2023-02-11T04:19:43.031Z,25.00
2023-02-11T04:20:43.166Z,25.00
2023-02-11T04:21:43.264Z,25.00
2023-02-11T04:22:43.182Z,25.00
2023-02-11T04:27:11.022Z,25.00
2023-02-11T04:29:36.609Z,25.00
2023-02-11T04:34:25.147Z,25.00
2023-02-11T04:38:01.984Z,25.00
2023-02-11T04:39:01.662Z,25.00
2023-02-11T04:40:01.744Z,25.00
2023-02-11T04:42:22.207Z,25.00
2023-02-11T04:43:22.828Z,25.00
2023-02-11T04:45:51.261Z,25.00
2023-02-11T04:48:05.269Z,25.00
2023-02-11T04:55:57.514Z,25.00
2023-02-11T04:56:55.249Z,25.00
2023-02-11T04:59:10.719Z,25.00
2023-02-11T05:00:10.643Z,25.00
2023-02-11T05:01:11.371Z,25.00
2023-02-11T05:02:10.468Z,25.00
2023-02-11T05:03:10.570Z,25.00
2023-02-11T05:04:10.669Z,25.00
2023-02-11T05:05:10.438Z,36.29
2023-02-11T05:06:10.469Z,34.85
2023-02-11T05:07:10.471Z,28.83
2023-02-11T05:08:10.467Z,25.75
2023-02-11T05:09:10.461Z,25.96
2023-02-11T05:10:10.541Z,29.63
2023-02-11T05:11:11.492Z,26.93
2023-02-11T05:12:26.266Z,27.75
2023-02-11T05:13:10.485Z,27.99
2023-02-11T05:14:10.436Z,28.22
2023-02-11T05:15:10.489Z,23.68
2023-02-11T05:16:11.002Z,14.05
2023-02-11T05:17:10.603Z,11.56
2023-02-11T05:18:10.397Z,29.20
2023-02-11T05:19:10.414Z,28.22
2023-02-11T05:20:10.418Z,27.73
2023-02-11T05:21:10.414Z,26.92
2023-02-11T05:22:10.355Z,30.50
2023-02-11T05:23:10.339Z,26.23
2023-02-11T05:24:10.506Z,25.14
2023-02-11T05:25:10.336Z,26.98
2023-02-11T05:26:10.339Z,27.01
2023-02-11T05:27:10.363Z,31.53
2023-02-11T05:28:10.330Z,36.69
2023-02-11T05:29:10.306Z,49.58
2023-02-11T05:30:10.286Z,52.51
2023-02-11T05:31:10.396Z,54.12
2023-02-11T05:32:10.295Z,58.82
2023-02-11T05:33:10.373Z,54.20
2023-02-11T05:34:10.287Z,55.07
2023-02-11T05:35:10.302Z,50.58
2023-02-11T05:36:10.243Z,52.26
2023-02-11T05:37:10.271Z,51.06
2023-02-11T05:38:10.268Z,55.38
2023-02-11T05:39:10.263Z,50.97
2023-02-11T05:40:10.254Z,46.12
2023-02-11T05:41:10.362Z,42.30
2023-02-11T05:42:10.392Z,40.05
2023-02-11T05:43:12.390Z,52.65
2023-02-11T05:44:13.007Z,56.09
2023-02-11T05:45:13.027Z,56.43
2023-02-11T05:49:01.712Z,25.00
2023-02-11T05:53:00.473Z,25.00
2023-02-11T06:01:10.453Z,25.00
2023-02-11T06:10:10.374Z,25.00
2023-02-11T06:19:10.882Z,25.00
2023-02-11T06:20:10.758Z,25.00
2023-02-11T06:21:10.684Z,25.00
2023-02-11T06:22:10.685Z,25.00
2023-02-11T06:23:10.612Z,25.00
2023-02-11T06:24:10.560Z,31.23
2023-02-11T06:25:10.572Z,33.82
2023-02-11T06:26:10.584Z,36.72
2023-02-11T06:27:10.583Z,28.36
2023-02-11T06:28:10.702Z,27.48
2023-02-11T06:29:10.529Z,26.95
2023-02-11T06:30:10.522Z,25.00
2023-02-11T06:31:10.680Z,25.00
2023-02-11T06:32:28.182Z,28.48
2023-02-11T06:33:11.558Z,28.79
2023-02-11T06:34:10.530Z,28.48
2023-02-11T06:35:12.159Z,21.13
2023-02-11T06:36:10.506Z,13.49
2023-02-11T06:37:10.555Z,2.40
2023-02-11T06:38:10.535Z,18.21
2023-02-11T06:39:10.515Z,33.77
2023-02-11T06:40:10.497Z,29.56
2023-02-11T06:41:10.463Z,28.23
2023-02-11T06:42:10.491Z,25.48
2023-02-11T06:43:10.491Z,26.00
2023-02-11T06:44:10.508Z,25.51
2023-02-11T06:45:10.453Z,25.36
2023-02-11T06:46:10.500Z,27.28
2023-02-11T06:47:10.458Z,43.86
2023-02-11T06:48:10.508Z,39.70
2023-02-11T06:49:10.467Z,28.68
2023-02-11T06:50:10.566Z,30.69
2023-02-11T06:51:10.558Z,25.00
2023-02-11T06:52:10.559Z,30.83
2023-02-11T06:53:10.546Z,25.00
2023-02-11T06:54:10.606Z,30.07
2023-02-11T06:55:10.680Z,25.00
2023-02-11T06:56:10.698Z,25.47
2023-02-11T06:57:10.799Z,25.49
2023-02-11T06:58:10.834Z,25.00
2023-02-11T06:59:10.885Z,27.81
2023-02-11T07:00:10.925Z,34.01
2023-02-11T07:01:10.986Z,0.00
2023-02-11T07:02:11.143Z,0.42
2023-02-11T07:03:11.224Z,26.50
2023-02-11T07:04:11.221Z,51.98
2023-02-11T07:05:11.174Z,91.30
2023-02-11T07:06:11.212Z,101.33
2023-02-11T07:07:11.343Z,80.21
2023-02-11T07:08:11.449Z,54.84
2023-02-11T07:09:11.444Z,34.03
2023-02-11T07:10:11.516Z,25.00
2023-02-11T07:11:11.649Z,20.84
2023-02-11T07:12:11.633Z,28.27
2023-02-11T07:13:11.745Z,61.55
2023-02-11T07:14:11.865Z,78.26
2023-02-11T07:15:11.645Z,65.81
2023-02-11T07:16:11.882Z,63.30
2023-02-11T07:36:12.629Z,171.88
2023-02-11T07:41:12.619Z,200.05
2023-02-11T07:42:12.708Z,208.25
2023-02-11T07:44:12.664Z,175.69
2023-02-11T07:45:12.627Z,170.25
2023-02-11T07:46:12.703Z,149.45
2023-02-11T07:47:12.757Z,134.49
2023-02-11T07:48:12.720Z,131.61
2023-02-11T07:49:12.727Z,114.20
2023-02-11T07:50:12.744Z,91.19
2023-02-11T07:51:12.737Z,67.98
2023-02-11T07:52:13.305Z,74.70
2023-02-11T07:53:12.854Z,84.22
2023-02-11T07:54:12.773Z,95.91
2023-02-11T07:55:12.805Z,35.05
2023-02-11T07:56:12.802Z,23.77
2023-02-11T07:57:12.800Z,20.71
2023-02-11T07:58:12.800Z,20.42
2023-02-11T07:59:12.802Z,6.22
2023-02-11T08:00:13.355Z,99.44
2023-02-11T08:01:12.843Z,136.45
2023-02-11T08:02:12.873Z,139.02
2023-02-11T08:03:12.825Z,142.59
2023-02-11T08:04:12.868Z,149.27
2023-02-11T08:05:12.839Z,150.88
2023-02-11T08:06:12.876Z,136.77
2023-02-11T08:07:12.852Z,132.74
2023-02-11T08:08:12.860Z,121.94
2023-02-11T08:09:12.897Z,115.33
2023-02-11T08:10:13.004Z,144.21
2023-02-11T08:11:12.874Z,156.53
2023-02-11T08:12:13.292Z,169.10
2023-02-11T08:13:13.018Z,188.28
2023-02-11T08:14:13.095Z,194.52
2023-02-11T08:15:13.095Z,200.81
2023-02-11T08:16:13.780Z,217.79
2023-02-11T09:14:07.811Z,25.00
2023-02-11T09:15:07.607Z,25.00
2023-02-11T09:16:07.558Z,25.00
2023-02-11T09:17:07.636Z,25.00
2023-02-11T09:18:07.567Z,25.00
2023-02-11T09:19:07.581Z,25.00
2023-02-11T09:20:10.637Z,8.95
2023-02-11T09:21:07.576Z,47.66
2023-02-11T09:22:07.518Z,29.49
2023-02-11T09:23:07.515Z,45.37
2023-02-11T09:24:07.545Z,105.86
2023-02-11T09:25:07.497Z,116.48
2023-02-11T09:26:09.193Z,129.28
2023-02-11T09:27:07.545Z,159.07
2023-02-11T09:33:13.133Z,25.00
2023-02-11T09:50:53.452Z,25.00
2023-02-11T09:51:53.730Z,25.00
2023-02-11T09:52:52.289Z,25.00
2023-02-11T09:53:51.812Z,25.00
2023-02-11T09:54:51.974Z,25.00
2023-02-11T09:57:26.442Z,25.00
2023-02-11T09:58:12.756Z,25.00
2023-02-11T09:59:12.275Z,25.00
2023-02-11T10:00:11.668Z,25.00
2023-02-11T10:01:11.734Z,25.00
2023-02-11T10:02:11.835Z,25.00
2023-02-11T10:03:11.832Z,0.00
2023-02-11T10:04:11.998Z,0.00
2023-02-11T10:05:12.043Z,0.00
2023-02-11T10:06:11.996Z,0.00
2023-02-11T10:07:12.270Z,37.10
2023-02-11T10:08:12.007Z,95.03
2023-02-11T10:09:12.076Z,134.25
2023-02-11T10:10:12.250Z,187.80
2023-02-11T10:11:22.697Z,194.78
2023-02-11T10:12:13.217Z,64.82
2023-02-11T10:13:13.298Z,0.73
2023-02-11T10:14:12.991Z,0.00
2023-02-11T10:15:11.999Z,0.00
2023-02-11T10:16:12.137Z,0.00
2023-02-11T10:17:12.013Z,44.22
2023-02-11T10:18:12.009Z,89.12
2023-02-11T10:19:11.957Z,101.81
2023-02-11T10:20:12.047Z,171.23
2023-02-11T10:21:12.214Z,186.63
2023-02-11T10:22:11.972Z,250.00
2023-02-11T10:23:12.012Z,249.68
2023-02-11T10:24:12.007Z,213.54
2023-02-11T10:25:12.009Z,189.92
2023-02-11T10:26:12.034Z,205.42
2023-02-11T10:27:12.052Z,242.90
2023-02-11T10:28:12.219Z,209.37
2023-02-11T10:29:12.101Z,153.94
2023-02-11T10:30:12.207Z,111.01
2023-02-11T10:31:12.312Z,91.53
2023-02-11T10:32:12.305Z,120.94
2023-02-11T10:33:12.339Z,101.99
2023-02-11T10:34:12.493Z,91.97
2023-02-11T10:35:12.420Z,116.98
2023-02-11T10:36:12.556Z,156.04
2023-02-11T10:37:12.601Z,133.96
2023-02-11T10:38:12.538Z,139.19
2023-02-11T10:39:12.588Z,142.13
2023-02-11T10:40:12.727Z,217.60
2023-02-11T10:41:13.759Z,209.34
2023-02-11T10:51:14.634Z,263.89
2023-02-11T10:52:13.519Z,239.73
2023-02-11T10:53:13.214Z,240.81
2023-02-11T10:54:13.888Z,230.58
2023-02-11T10:55:13.698Z,212.57
2023-02-11T10:56:13.824Z,207.73
2023-02-11T10:57:13.996Z,219.77
2023-02-11T10:58:13.663Z,245.81
2023-02-11T10:59:13.700Z,251.07
2023-02-11T11:00:13.696Z,247.21
2023-02-11T11:01:24.016Z,225.82
2023-02-11T11:02:14.783Z,209.28
2023-02-11T11:03:13.642Z,211.62
2023-02-11T11:04:13.801Z,226.77
2023-02-11T11:05:13.688Z,236.80
2023-02-11T11:06:13.880Z,221.07
2023-02-11T11:07:13.652Z,201.29
2023-02-11T11:08:13.660Z,201.85
2023-02-11T11:09:13.687Z,176.38
2023-02-11T11:10:13.561Z,191.15
2023-02-11T11:11:15.017Z,213.12
2023-02-11T11:12:13.954Z,201.20
2023-02-11T11:13:13.606Z,205.00
2023-02-11T11:14:13.536Z,180.44
2023-02-11T11:15:13.964Z,152.92
2023-02-11T11:16:13.779Z,164.90
2023-02-11T11:17:13.558Z,167.78
2023-02-11T13:07:59.020Z,25.00
2023-02-11T13:12:58.665Z,71.26
2023-02-11T13:15:58.677Z,8.96
2023-02-11T13:17:58.512Z,103.33
2023-02-11T13:18:58.803Z,53.47
2023-02-11T13:19:58.688Z,7.05
2023-02-11T13:20:58.519Z,58.84
2023-02-11T13:21:58.524Z,121.33
2023-02-11T13:22:58.532Z,146.84
2023-02-11T13:23:58.930Z,141.35
2023-02-11T13:24:58.520Z,163.09
2023-02-11T13:25:58.888Z,198.19
2023-02-11T13:26:58.729Z,199.71
2023-02-11T13:27:58.812Z,145.29
2023-02-11T13:28:58.774Z,142.63
2023-02-11T13:29:58.904Z,194.27
2023-02-11T13:30:59.026Z,187.41
2023-02-11T13:31:59.072Z,182.52
2023-02-11T13:32:59.110Z,174.22
2023-02-11T13:34:59.168Z,102.20
2023-02-11T13:35:59.104Z,151.34
2023-02-11T13:36:58.883Z,156.11
2023-02-11T13:37:59.059Z,163.53
2023-02-11T13:38:58.935Z,187.01
2023-02-11T13:39:59.140Z,197.96
2023-02-11T13:40:59.038Z,188.22
2023-02-11T13:43:19.470Z,25.00
2023-02-11T14:11:58.666Z,25.00
2023-02-11T14:12:58.357Z,25.00
2023-02-11T14:13:58.371Z,25.00
2023-02-11T14:14:59.245Z,25.00
2023-02-11T14:15:58.297Z,25.00
2023-02-11T14:39:24.822Z,25.00
2023-02-11T15:29:11.546Z,25.00
2023-02-11T15:31:34.579Z,25.00
2023-02-11T15:32:31.154Z,25.00
2023-02-11T15:33:30.806Z,25.00
2023-02-11T15:34:30.906Z,25.00
2023-02-11T15:35:30.787Z,25.00
2023-02-11T15:36:30.812Z,25.00
2023-02-11T15:37:31.041Z,0.00
2023-02-11T17:24:43.470Z,25.00
2023-02-11T17:32:23.054Z,25.00
2023-02-11T17:33:23.101Z,25.00
2023-02-11T17:34:22.605Z,25.00
2023-02-11T17:35:22.355Z,25.00
2023-02-11T17:37:43.401Z,25.00
2023-02-11T18:00:58.394Z,25.00
2023-02-11T18:09:42.001Z,41.60
2023-02-11T18:10:42.047Z,28.10
2023-02-11T18:11:41.992Z,25.00
2023-02-11T18:12:42.022Z,39.17
2023-02-11T18:13:41.964Z,52.67
2023-02-11T18:14:41.967Z,38.76
2023-02-11T18:15:41.988Z,25.00
2023-02-11T18:16:41.994Z,32.45
2023-02-11T18:17:41.946Z,49.60
2023-02-11T18:18:42.548Z,53.36
2023-02-11T18:19:41.919Z,56.27
2023-02-11T18:20:41.944Z,50.78
2023-02-11T19:00:40.388Z,25.00
2023-02-11T19:01:39.733Z,25.00
2023-02-11T19:03:59.198Z,25.00
2023-02-11T19:04:59.346Z,25.00
2023-02-11T19:05:59.103Z,25.00
2023-02-11T19:06:59.170Z,25.00
2023-02-11T19:07:59.086Z,25.00
2023-02-11T19:09:00.017Z,27.55
2023-02-11T19:09:59.056Z,32.35
2023-02-11T19:10:59.088Z,22.36
2023-02-11T19:39:19.602Z,25.00
2023-02-11T19:42:39.423Z,25.00
2023-02-11T19:43:39.321Z,25.00
2023-02-11T19:44:39.255Z,25.00
2023-02-11T19:45:39.179Z,25.00
2023-02-11T19:46:39.077Z,25.00
2023-02-11T19:55:40.500Z,25.00
2023-02-11T19:56:40.065Z,25.00
2023-02-11T19:59:41.388Z,25.00
2023-02-11T20:02:19.866Z,25.00
2023-02-11T20:03:19.052Z,25.00
2023-02-11T20:05:39.570Z,25.00
2023-02-11T20:06:39.845Z,25.00
2023-02-11T20:07:39.709Z,25.00
2023-02-11T20:08:38.631Z,25.00
2023-02-11T20:09:40.053Z,25.00
2023-02-11T20:10:38.742Z,25.00
2023-02-11T20:11:39.650Z,25.00
2023-02-11T20:12:39.567Z,25.01
2023-02-11T20:14:59.133Z,25.00
2023-02-11T20:17:19.364Z,25.00
2023-02-11T20:18:19.981Z,25.00
2023-02-11T20:19:19.236Z,25.00
2023-02-11T20:20:19.160Z,25.00
2023-02-11T20:21:19.818Z,25.00
2023-02-11T20:22:18.669Z,25.00
2023-02-11T20:23:18.844Z,25.00
2023-02-11T20:24:18.579Z,25.08
2023-02-11T20:25:18.836Z,25.00
2023-02-11T20:27:39.351Z,25.00
2023-02-11T20:28:39.392Z,25.00
2023-02-11T20:29:40.430Z,25.00
2023-02-11T20:30:38.741Z,25.00
2023-02-11T20:31:38.756Z,25.00
2023-02-11T20:32:38.783Z,36.55
2023-02-11T20:33:38.547Z,52.85
2023-02-11T20:34:38.564Z,50.22
2023-02-11T20:35:39.695Z,47.87
2023-02-11T20:36:38.580Z,49.75
2023-02-11T20:37:38.745Z,54.93
2023-02-11T21:32:04.066Z,24.29
2023-02-11T21:33:04.365Z,25.00
2023-02-11T21:34:04.016Z,26.55
2023-02-11T21:35:04.246Z,41.81
2023-02-11T21:36:03.916Z,59.89
2023-02-11T21:37:20.049Z,64.98
2023-02-11T21:38:03.849Z,66.25
2023-02-11T21:39:04.248Z,67.95
2023-02-11T21:40:04.593Z,72.25
2023-02-11T21:41:03.717Z,73.99
2023-02-11T21:42:03.675Z,68.04
2023-02-11T21:43:03.752Z,71.99
2023-02-11T21:44:03.651Z,76.35
2023-02-11T21:45:03.683Z,69.57
2023-02-11T21:46:03.685Z,70.20
2023-02-11T21:47:03.757Z,75.87
2023-02-11T21:48:03.841Z,77.08
2023-02-11T21:52:11.793Z,25.00
2023-02-11T21:53:11.292Z,25.00
2023-02-11T21:54:11.003Z,25.00
2023-02-11T21:55:11.469Z,25.00
2023-02-11T21:57:31.419Z,25.00
2023-02-11T21:58:31.123Z,25.00
2023-02-11T21:59:30.693Z,25.00
2023-02-11T22:00:30.323Z,25.00
2023-02-11T22:01:30.565Z,25.00
2023-02-11T22:02:30.355Z,25.87
2023-02-11T22:03:30.113Z,29.59
2023-02-11T22:04:31.274Z,25.00
2023-02-11T22:05:30.288Z,25.05
2023-02-11T22:06:30.304Z,25.00
2023-02-11T22:07:30.210Z,28.95
2023-02-11T22:08:30.404Z,25.00
2023-02-11T22:09:30.370Z,25.28
2023-02-11T22:10:30.154Z,26.92
2023-02-11T22:11:30.068Z,25.00
2023-02-11T22:12:30.168Z,25.00
2023-02-11T22:13:30.233Z,25.00
2023-02-11T22:14:32.265Z,25.00
2023-02-11T22:15:30.187Z,25.00
2023-02-11T22:16:30.229Z,25.56
2023-02-11T22:28:50.521Z,25.00
2023-02-11T22:29:50.785Z,25.00
2023-02-11T22:30:51.522Z,25.00
2023-02-11T22:31:50.838Z,25.00
2023-02-11T23:40:05.180Z,25.00
2023-02-11T23:41:05.471Z,25.00
2023-02-11T23:42:05.401Z,25.00
2023-02-11T23:43:05.017Z,25.00
2023-02-11T23:44:05.110Z,25.79
2023-02-11T23:45:07.500Z,25.10
2023-02-11T23:46:04.976Z,25.36
2023-02-11T23:47:04.942Z,23.51
2023-02-11T23:48:05.229Z,19.94
2023-02-11T23:49:04.926Z,16.45
2023-02-11T23:50:04.853Z,17.87
2023-02-11T23:51:04.842Z,25.00
2023-02-11T23:52:05.341Z,26.87
2023-02-11T23:53:05.136Z,39.52
2023-02-11T23:54:04.914Z,46.85
2023-02-11T23:55:06.506Z,54.02
2023-02-11T23:56:04.873Z,52.80
2023-02-11T23:57:05.062Z,50.43
2023-02-11T23:58:06.097Z,46.70
2023-02-11T23:59:20.785Z,40.65
